sensor_id;sensor_type;location;lat;lon;timestamp;pressure;altitude;pressure_sealevel;temperature;humidity
57847;BME280;43675;50.030;21.952;2022-10-22T00:00:44;98625.61;;;11.86;49.95
57847;BME280;43675;50.030;21.952;2022-10-22T00:03:11;98633.52;;;11.81;50.00
57847;BME280;43675;50.030;21.952;2022-10-22T00:05:37;98622.39;;;11.77;50.13
57847;BME280;43675;50.030;21.952;2022-10-22T00:08:09;98628.44;;;11.73;50.22
57847;BME280;43675;50.030;21.952;2022-10-22T00:10:37;98626.38;;;11.68;50.30
57847;BME280;43675;50.030;21.952;2022-10-22T00:13:03;98624.07;;;11.63;50.46
57847;BME280;43675;50.030;21.952;2022-10-22T00:15:29;98626.39;;;11.59;50.50
57847;BME280;43675;50.030;21.952;2022-10-22T00:18:02;98628.55;;;11.60;50.55
57847;BME280;43675;50.030;21.952;2022-10-22T00:20:28;98628.45;;;11.57;50.61
57847;BME280;43675;50.030;21.952;2022-10-22T00:22:53;98629.91;;;11.60;50.58
57847;BME280;43675;50.030;21.952;2022-10-22T00:25:19;98625.11;;;11.62;50.53
57847;BME280;43675;50.030;21.952;2022-10-22T00:27:45;98628.41;;;11.64;50.49
57847;BME280;43675;50.030;21.952;2022-10-22T00:30:11;98626.31;;;11.66;50.45
57847;BME280;43675;50.030;21.952;2022-10-22T00:32:36;98622.89;;;11.68;50.42
57847;BME280;43675;50.030;21.952;2022-10-22T00:35:03;98616.75;;;11.70;50.33
57847;BME280;43675;50.030;21.952;2022-10-22T00:37:29;98612.30;;;11.73;50.33
57847;BME280;43675;50.030;21.952;2022-10-22T00:39:55;98614.27;;;11.75;50.23
57847;BME280;43675;50.030;21.952;2022-10-22T00:42:24;98617.53;;;11.77;50.19
57847;BME280;43675;50.030;21.952;2022-10-22T00:50:30;98595.05;;;11.80;50.02
57847;BME280;43675;50.030;21.952;2022-10-22T00:52:56;98592.09;;;11.79;50.01
57847;BME280;43675;50.030;21.952;2022-10-22T00:55:24;98593.50;;;11.82;49.96
57847;BME280;43675;50.030;21.952;2022-10-22T00:57:53;98598.11;;;11.84;49.87
57847;BME280;43675;50.030;21.952;2022-10-22T01:00:19;98600.06;;;11.86;49.81
57847;BME280;43675;50.030;21.952;2022-10-22T01:02:46;98603.58;;;11.87;49.80
57847;BME280;43675;50.030;21.952;2022-10-22T01:05:13;98604.92;;;11.87;49.80
57847;BME280;43675;50.030;21.952;2022-10-22T01:07:41;98609.17;;;11.85;49.83
57847;BME280;43675;50.030;21.952;2022-10-22T01:18:04;98606.05;;;11.79;49.99
57847;BME280;43675;50.030;21.952;2022-10-22T01:20:57;98603.27;;;11.76;49.95
57847;BME280;43675;50.030;21.952;2022-10-22T01:26:15;98601.66;;;11.69;50.13
57847;BME280;43675;50.030;21.952;2022-10-22T01:29:06;98594.56;;;11.65;50.14
57847;BME280;43675;50.030;21.952;2022-10-22T01:31:33;98594.12;;;11.68;50.17
57847;BME280;43675;50.030;21.952;2022-10-22T01:33:59;98598.08;;;11.66;50.24
57847;BME280;43675;50.030;21.952;2022-10-22T01:36:32;98593.59;;;11.69;50.23
57847;BME280;43675;50.030;21.952;2022-10-22T01:38:55;98582.11;;;11.71;50.24
57847;BME280;43675;50.030;21.952;2022-10-22T01:41:21;98595.44;;;11.75;50.21
57847;BME280;43675;50.030;21.952;2022-10-22T01:43:47;98589.91;;;11.79;50.15
57847;BME280;43675;50.030;21.952;2022-10-22T01:46:21;98593.80;;;11.83;50.16
57847;BME280;43675;50.030;21.952;2022-10-22T01:54:44;98594.60;;;11.93;50.20
57847;BME280;43675;50.030;21.952;2022-10-22T01:57:14;98589.89;;;11.88;50.29
57847;BME280;43675;50.030;21.952;2022-10-22T01:59:51;98600.22;;;11.91;50.19
57847;BME280;43675;50.030;21.952;2022-10-22T02:02:29;98596.56;;;11.95;50.20
57847;BME280;43675;50.030;21.952;2022-10-22T02:04:57;98578.56;;;11.95;50.19
57847;BME280;43675;50.030;21.952;2022-10-22T02:07:27;98576.14;;;11.96;50.16
57847;BME280;43675;50.030;21.952;2022-10-22T02:09:54;98580.80;;;11.98;50.19
57847;BME280;43675;50.030;21.952;2022-10-22T02:12:21;98597.51;;;12.00;50.18
57847;BME280;43675;50.030;21.952;2022-10-22T02:14:55;98599.68;;;12.01;50.21
57847;BME280;43675;50.030;21.952;2022-10-22T02:17:23;98596.69;;;12.00;50.26
57847;BME280;43675;50.030;21.952;2022-10-22T02:19:55;98595.89;;;11.99;50.26
57847;BME280;43675;50.030;21.952;2022-10-22T02:22:29;98600.14;;;11.98;50.24
57847;BME280;43675;50.030;21.952;2022-10-22T02:24:55;98598.73;;;11.95;50.28
57847;BME280;43675;50.030;21.952;2022-10-22T02:27:30;98593.56;;;11.94;50.41
57847;BME280;43675;50.030;21.952;2022-10-22T02:30:06;98594.60;;;11.93;50.45
57847;BME280;43675;50.030;21.952;2022-10-22T02:32:38;98595.88;;;11.90;50.50
57847;BME280;43675;50.030;21.952;2022-10-22T02:35:05;98588.55;;;11.88;50.46
57847;BME280;43675;50.030;21.952;2022-10-22T02:37:32;98588.55;;;11.88;50.49
57847;BME280;43675;50.030;21.952;2022-10-22T02:39:58;98585.28;;;11.86;50.54
57847;BME280;43675;50.030;21.952;2022-10-22T02:42:25;98578.55;;;11.86;50.56
57847;BME280;43675;50.030;21.952;2022-10-22T02:44:51;98577.94;;;11.84;50.56
57847;BME280;43675;50.030;21.952;2022-10-22T02:47:23;98580.36;;;11.83;50.52
57847;BME280;43675;50.030;21.952;2022-10-22T02:49:49;98582.67;;;11.79;50.59
57847;BME280;43675;50.030;21.952;2022-10-22T02:52:14;98583.92;;;11.77;50.63
57847;BME280;43675;50.030;21.952;2022-10-22T02:54:40;98597.24;;;11.72;50.71
57847;BME280;43675;50.030;21.952;2022-10-22T02:57:06;98595.64;;;11.64;50.76
57847;BME280;43675;50.030;21.952;2022-10-22T02:59:31;98594.03;;;11.57;50.86
57847;BME280;43675;50.030;21.952;2022-10-22T03:01:57;98595.91;;;11.47;51.01
57847;BME280;43675;50.030;21.952;2022-10-22T03:04:23;98594.02;;;11.38;51.14
57847;BME280;43675;50.030;21.952;2022-10-22T03:06:48;98592.89;;;11.28;51.29
57847;BME280;43675;50.030;21.952;2022-10-22T03:09:14;98589.66;;;11.19;51.49
57847;BME280;43675;50.030;21.952;2022-10-22T03:11:46;98595.23;;;11.09;51.65
57847;BME280;43675;50.030;21.952;2022-10-22T03:14:11;98594.06;;;10.98;51.84
57847;BME280;43675;50.030;21.952;2022-10-22T03:16:37;98594.44;;;10.93;51.97
57847;BME280;43675;50.030;21.952;2022-10-22T03:19:03;98593.43;;;10.87;52.08
57847;BME280;43675;50.030;21.952;2022-10-22T03:21:33;98579.31;;;10.82;52.14
57847;BME280;43675;50.030;21.952;2022-10-22T03:24:08;98584.81;;;10.78;52.26
57847;BME280;43675;50.030;21.952;2022-10-22T03:26:35;98577.13;;;10.73;52.36
57847;BME280;43675;50.030;21.952;2022-10-22T03:29:02;98572.86;;;10.65;52.53
57847;BME280;43675;50.030;21.952;2022-10-22T03:31:28;98579.45;;;10.63;52.57
57847;BME280;43675;50.030;21.952;2022-10-22T03:33:54;98581.63;;;10.63;52.62
57847;BME280;43675;50.030;21.952;2022-10-22T03:36:20;98578.66;;;10.62;52.67
57847;BME280;43675;50.030;21.952;2022-10-22T03:38:45;98575.43;;;10.63;52.70
57847;BME280;43675;50.030;21.952;2022-10-22T03:41:11;98571.20;;;10.64;52.70
57847;BME280;43675;50.030;21.952;2022-10-22T03:43:37;98574.78;;;10.67;52.72
57847;BME280;43675;50.030;21.952;2022-10-22T03:46:10;98574.06;;;10.69;52.75
57847;BME280;43675;50.030;21.952;2022-10-22T03:48:35;98570.11;;;10.72;52.73
57847;BME280;43675;50.030;21.952;2022-10-22T03:51:01;98569.98;;;10.76;52.60
57847;BME280;43675;50.030;21.952;2022-10-22T03:53:27;98574.70;;;10.80;52.57
57847;BME280;43675;50.030;21.952;2022-10-22T03:55:52;98576.94;;;10.83;52.45
57847;BME280;43675;50.030;21.952;2022-10-22T03:58:18;98576.80;;;10.87;52.37
57847;BME280;43675;50.030;21.952;2022-10-22T04:00:43;98560.48;;;10.89;52.23
57847;BME280;43675;50.030;21.952;2022-10-22T04:03:09;98560.48;;;10.89;52.23
57847;BME280;43675;50.030;21.952;2022-10-22T04:05:34;98570.61;;;10.87;52.28
57847;BME280;43675;50.030;21.952;2022-10-22T04:08:00;98566.72;;;10.83;52.35
57847;BME280;43675;50.030;21.952;2022-10-22T04:10:26;98564.16;;;10.79;52.42
57847;BME280;43675;50.030;21.952;2022-10-22T04:12:51;98564.81;;;10.74;52.54
57847;BME280;43675;50.030;21.952;2022-10-22T04:15:17;98566.84;;;10.70;52.61
57847;BME280;43675;50.030;21.952;2022-10-22T04:17:43;98561.60;;;10.66;52.67
57847;BME280;43675;50.030;21.952;2022-10-22T04:20:09;98557.47;;;10.63;52.75
57847;BME280;43675;50.030;21.952;2022-10-22T04:22:41;98557.70;;;10.62;52.79
57847;BME280;43675;50.030;21.952;2022-10-22T04:25:07;98562.69;;;10.58;52.90
57847;BME280;43675;50.030;21.952;2022-10-22T04:27:34;98560.14;;;10.54;52.94
57847;BME280;43675;50.030;21.952;2022-10-22T04:29:59;98555.42;;;10.50;53.01
57847;BME280;43675;50.030;21.952;2022-10-22T04:32:26;98543.47;;;10.46;53.07
57847;BME280;43675;50.030;21.952;2022-10-22T04:34:52;98537.61;;;10.39;53.16
57847;BME280;43675;50.030;21.952;2022-10-22T04:37:18;98536.02;;;10.32;53.27
57847;BME280;43675;50.030;21.952;2022-10-22T04:39:44;98541.63;;;10.24;53.47
57847;BME280;43675;50.030;21.952;2022-10-22T04:42:16;98543.53;;;10.17;53.55
57847;BME280;43675;50.030;21.952;2022-10-22T04:44:41;98541.51;;;10.06;53.74
57847;BME280;43675;50.030;21.952;2022-10-22T04:47:14;98535.88;;;9.98;53.89
57847;BME280;43675;50.030;21.952;2022-10-22T04:49:39;98529.11;;;9.89;54.04
57847;BME280;43675;50.030;21.952;2022-10-22T04:52:05;98523.98;;;9.81;54.22
57847;BME280;43675;50.030;21.952;2022-10-22T04:54:30;98525.37;;;9.74;54.35
57847;BME280;43675;50.030;21.952;2022-10-22T04:56:56;98527.34;;;9.70;54.52
57847;BME280;43675;50.030;21.952;2022-10-22T04:59:22;98521.27;;;9.65;54.73
57847;BME280;43675;50.030;21.952;2022-10-22T05:02:01;98528.09;;;9.61;54.83
57847;BME280;43675;50.030;21.952;2022-10-22T05:04:27;98517.72;;;9.56;55.00
57847;BME280;43675;50.030;21.952;2022-10-22T05:06:52;98513.38;;;9.55;55.08
57847;BME280;43675;50.030;21.952;2022-10-22T05:09:19;98507.72;;;9.54;55.16
57847;BME280;43675;50.030;21.952;2022-10-22T05:11:47;98508.23;;;9.53;55.21
57847;BME280;43675;50.030;21.952;2022-10-22T05:14:15;98506.69;;;9.55;55.33
57847;BME280;43675;50.030;21.952;2022-10-22T05:16:42;98506.48;;;9.56;55.33
57847;BME280;43675;50.030;21.952;2022-10-22T05:19:11;98500.39;;;9.58;55.36
57847;BME280;43675;50.030;21.952;2022-10-22T05:21:36;98493.05;;;9.63;55.42
57847;BME280;43675;50.030;21.952;2022-10-22T05:24:08;98493.25;;;9.68;55.37
57847;BME280;43675;50.030;21.952;2022-10-22T05:26:34;98488.67;;;9.75;55.38
57847;BME280;43675;50.030;21.952;2022-10-22T05:28:59;98487.91;;;9.83;55.31
57847;BME280;43675;50.030;21.952;2022-10-22T05:31:25;98499.50;;;9.93;55.19
57847;BME280;43675;50.030;21.952;2022-10-22T05:33:50;98504.41;;;10.03;55.11
57847;BME280;43675;50.030;21.952;2022-10-22T05:36:18;98510.42;;;10.14;55.02
57847;BME280;43675;50.030;21.952;2022-10-22T05:38:45;98510.72;;;10.21;54.95
57847;BME280;43675;50.030;21.952;2022-10-22T05:41:13;98506.64;;;10.28;54.91
57847;BME280;43675;50.030;21.952;2022-10-22T05:43:46;98513.32;;;10.34;54.84
57847;BME280;43675;50.030;21.952;2022-10-22T05:46:14;98506.87;;;10.42;54.79
57847;BME280;43675;50.030;21.952;2022-10-22T05:48:40;98503.69;;;10.52;54.71
57847;BME280;43675;50.030;21.952;2022-10-22T05:51:08;98501.25;;;10.59;54.62
57847;BME280;43675;50.030;21.952;2022-10-22T05:53:37;98499.43;;;10.69;54.54
57847;BME280;43675;50.030;21.952;2022-10-22T05:56:13;98494.09;;;10.78;54.45
57847;BME280;43675;50.030;21.952;2022-10-22T05:58:40;98496.71;;;10.84;54.33
57847;BME280;43675;50.030;21.952;2022-10-22T06:01:15;98503.35;;;10.91;54.19
57847;BME280;43675;50.030;21.952;2022-10-22T06:03:42;98516.73;;;10.98;54.16
57847;BME280;43675;50.030;21.952;2022-10-22T06:09:19;98533.59;;;11.14;54.00
57847;BME280;43675;50.030;21.952;2022-10-22T06:11:46;98543.99;;;11.19;53.90
57847;BME280;43675;50.030;21.952;2022-10-22T06:14:12;98551.77;;;11.27;53.86
57847;BME280;43675;50.030;21.952;2022-10-22T06:16:38;98557.30;;;11.42;53.65
57847;BME280;43675;50.030;21.952;2022-10-22T06:19:04;98555.76;;;11.52;53.48
57847;BME280;43675;50.030;21.952;2022-10-22T06:21:30;98561.21;;;11.64;53.29
57847;BME280;43675;50.030;21.952;2022-10-22T06:24:03;98563.39;;;11.73;53.15
57847;BME280;43675;50.030;21.952;2022-10-22T06:26:28;98564.95;;;11.81;53.00
57847;BME280;43675;50.030;21.952;2022-10-22T06:28:55;98575.10;;;11.88;52.85
57847;BME280;43675;50.030;21.952;2022-10-22T06:31:21;98574.44;;;11.93;52.81
57847;BME280;43675;50.030;21.952;2022-10-22T06:33:46;98576.97;;;11.97;52.69
57847;BME280;43675;50.030;21.952;2022-10-22T06:36:16;98582.20;;;12.01;52.61
57847;BME280;43675;50.030;21.952;2022-10-22T06:38:42;98575.84;;;12.04;52.55
57847;BME280;43675;50.030;21.952;2022-10-22T06:41:10;98575.11;;;12.06;52.50
57847;BME280;43675;50.030;21.952;2022-10-22T06:43:36;98584.37;;;12.10;52.44
57847;BME280;43675;50.030;21.952;2022-10-22T06:46:05;98576.88;;;12.12;52.38
57847;BME280;43675;50.030;21.952;2022-10-22T06:48:32;98582.87;;;12.14;52.30
57847;BME280;43675;50.030;21.952;2022-10-22T06:51:06;98605.22;;;12.15;52.23
57847;BME280;43675;50.030;21.952;2022-10-22T06:53:32;98594.67;;;12.13;52.19
57847;BME280;43675;50.030;21.952;2022-10-22T06:55:57;98604.60;;;12.13;52.35
57847;BME280;43675;50.030;21.952;2022-10-22T06:58:30;98603.93;;;12.17;52.32
57847;BME280;43675;50.030;21.952;2022-10-22T07:01:08;98611.63;;;12.23;52.42
57847;BME280;43675;50.030;21.952;2022-10-22T07:03:34;98603.83;;;12.33;52.35
57847;BME280;43675;50.030;21.952;2022-10-22T07:06:02;98600.14;;;12.46;52.21
57847;BME280;43675;50.030;21.952;2022-10-22T07:08:35;98598.95;;;12.62;52.06
57847;BME280;43675;50.030;21.952;2022-10-22T07:11:07;98601.60;;;12.80;51.95
57847;BME280;43675;50.030;21.952;2022-10-22T07:13:34;98600.77;;;13.01;51.76
57847;BME280;43675;50.030;21.952;2022-10-22T07:16:07;98590.58;;;13.23;51.34
57847;BME280;43675;50.030;21.952;2022-10-22T07:18:34;98578.75;;;13.48;50.99
57847;BME280;43675;50.030;21.952;2022-10-22T07:21:01;98580.07;;;13.71;50.79
57847;BME280;43675;50.030;21.952;2022-10-22T07:23:28;98584.94;;;13.97;50.33
57847;BME280;43675;50.030;21.952;2022-10-22T07:25:54;98589.63;;;14.16;50.00
57847;BME280;43675;50.030;21.952;2022-10-22T07:28:19;98593.45;;;14.32;49.86
57847;BME280;43675;50.030;21.952;2022-10-22T07:30:46;98588.03;;;14.43;49.55
57847;BME280;43675;50.030;21.952;2022-10-22T07:33:12;98575.50;;;14.51;49.43
57847;BME280;43675;50.030;21.952;2022-10-22T07:35:38;98582.13;;;14.58;49.33
57847;BME280;43675;50.030;21.952;2022-10-22T07:38:05;98587.33;;;14.62;49.21
57847;BME280;43675;50.030;21.952;2022-10-22T07:40:31;98586.73;;;14.60;49.11
57847;BME280;43675;50.030;21.952;2022-10-22T07:42:57;98589.07;;;14.54;49.17
57847;BME280;43675;50.030;21.952;2022-10-22T07:45:22;98588.93;;;14.46;49.13
57847;BME280;43675;50.030;21.952;2022-10-22T07:47:48;98595.53;;;14.39;49.17
57847;BME280;43675;50.030;21.952;2022-10-22T07:50:14;98594.28;;;14.32;49.21
57847;BME280;43675;50.030;21.952;2022-10-22T07:52:40;98589.59;;;14.28;49.25
57847;BME280;43675;50.030;21.952;2022-10-22T07:55:07;98586.89;;;14.28;49.24
57847;BME280;43675;50.030;21.952;2022-10-22T07:57:32;98597.69;;;14.28;49.22
57847;BME280;43675;50.030;21.952;2022-10-22T07:59:58;98592.59;;;14.29;49.01
57847;BME280;43675;50.030;21.952;2022-10-22T08:02:24;98583.14;;;14.29;49.03
57847;BME280;43675;50.030;21.952;2022-10-22T08:04:50;98588.05;;;14.32;48.91
57847;BME280;43675;50.030;21.952;2022-10-22T08:07:22;98584.59;;;14.34;48.95
57847;BME280;43675;50.030;21.952;2022-10-22T08:09:48;98586.09;;;14.39;48.93
57847;BME280;43675;50.030;21.952;2022-10-22T08:12:14;98577.30;;;14.46;48.86
57847;BME280;43675;50.030;21.952;2022-10-22T08:14:46;98577.74;;;14.54;48.70
57847;BME280;43675;50.030;21.952;2022-10-22T08:17:11;98590.83;;;14.62;48.59
57847;BME280;43675;50.030;21.952;2022-10-22T08:19:37;98593.69;;;14.70;48.48
57847;BME280;43675;50.030;21.952;2022-10-22T08:22:02;98600.81;;;14.76;48.24
57847;BME280;43675;50.030;21.952;2022-10-22T08:24:35;98604.38;;;14.79;48.16
57847;BME280;43675;50.030;21.952;2022-10-22T08:27:01;98612.58;;;14.84;48.14
57847;BME280;43675;50.030;21.952;2022-10-22T08:29:26;98609.97;;;14.89;48.13
57847;BME280;43675;50.030;21.952;2022-10-22T08:31:53;98606.05;;;14.97;48.06
57847;BME280;43675;50.030;21.952;2022-10-22T08:34:19;98602.95;;;15.05;47.95
57847;BME280;43675;50.030;21.952;2022-10-22T08:36:45;98600.10;;;15.14;47.62
57847;BME280;43675;50.030;21.952;2022-10-22T08:39:12;98602.37;;;15.20;47.42
57847;BME280;43675;50.030;21.952;2022-10-22T08:41:56;98610.37;;;15.29;47.32
57847;BME280;43675;50.030;21.952;2022-10-22T08:49:36;98626.34;;;15.64;47.42
57847;BME280;43675;50.030;21.952;2022-10-22T08:51:59;98624.70;;;15.82;47.14
57847;BME280;43675;50.030;21.952;2022-10-22T08:54:32;98629.92;;;16.07;46.87
57847;BME280;43675;50.030;21.952;2022-10-22T08:57:02;98613.49;;;16.36;46.29
57847;BME280;43675;50.030;21.952;2022-10-22T08:59:33;98614.67;;;16.67;45.96
57847;BME280;43675;50.030;21.952;2022-10-22T09:01:58;98610.11;;;16.96;45.40
57847;BME280;43675;50.030;21.952;2022-10-22T09:04:37;98607.61;;;17.22;44.97
57847;BME280;43675;50.030;21.952;2022-10-22T09:07:09;98604.77;;;17.41;44.41
57847;BME280;43675;50.030;21.952;2022-10-22T09:09:38;98607.58;;;17.51;43.96
57847;BME280;43675;50.030;21.952;2022-10-22T09:12:05;98606.84;;;17.61;43.64
57847;BME280;43675;50.030;21.952;2022-10-22T09:14:31;98592.82;;;17.71;43.44
57847;BME280;43675;50.030;21.952;2022-10-22T09:17:35;98581.51;;;17.87;43.27
57847;BME280;43675;50.030;21.952;2022-10-22T09:20:10;98582.14;;;18.07;42.91
57847;BME280;43675;50.030;21.952;2022-10-22T09:25:19;98591.77;;;18.34;42.78
57847;BME280;43675;50.030;21.952;2022-10-22T09:27:53;98589.06;;;18.47;42.49
57847;BME280;43675;50.030;21.952;2022-10-22T09:30:21;98588.86;;;18.56;42.26
57847;BME280;43675;50.030;21.952;2022-10-22T09:33:00;98588.34;;;18.62;41.93
57847;BME280;43675;50.030;21.952;2022-10-22T09:35:27;98583.46;;;18.69;41.58
57847;BME280;43675;50.030;21.952;2022-10-22T09:37:55;98572.61;;;18.74;41.40
57847;BME280;43675;50.030;21.952;2022-10-22T09:40:22;98587.83;;;18.77;41.29
57847;BME280;43675;50.030;21.952;2022-10-22T09:42:48;98600.34;;;18.81;41.16
57847;BME280;43675;50.030;21.952;2022-10-22T09:45:20;98605.23;;;18.86;40.85
57847;BME280;43675;50.030;21.952;2022-10-22T09:47:46;98612.59;;;18.88;40.61
57847;BME280;43675;50.030;21.952;2022-10-22T09:50:28;98621.83;;;18.87;40.53
57847;BME280;43675;50.030;21.952;2022-10-22T09:53:00;98618.02;;;18.91;40.62
57847;BME280;43675;50.030;21.952;2022-10-22T09:55:26;98629.17;;;18.95;40.35
57847;BME280;43675;50.030;21.952;2022-10-22T09:57:54;98625.38;;;18.96;40.17
57847;BME280;43675;50.030;21.952;2022-10-22T10:00:21;98629.72;;;18.92;40.12
57847;BME280;43675;50.030;21.952;2022-10-22T10:02:47;98621.30;;;18.85;40.25
57847;BME280;43675;50.030;21.952;2022-10-22T10:05:23;98627.52;;;18.86;40.07
57847;BME280;43675;50.030;21.952;2022-10-22T10:07:54;98621.00;;;18.87;39.99
57847;BME280;43675;50.030;21.952;2022-10-22T10:10:32;98621.83;;;18.87;40.05
57847;BME280;43675;50.030;21.952;2022-10-22T10:21:25;98623.72;;;18.87;39.83
57847;BME280;43675;50.030;21.952;2022-10-22T10:26:42;98612.04;;;18.92;40.05
57847;BME280;43675;50.030;21.952;2022-10-22T10:37:25;98584.06;;;19.01;40.15
57847;BME280;43675;50.030;21.952;2022-10-22T10:42:42;98596.81;;;19.13;39.97
57847;BME280;43675;50.030;21.952;2022-10-22T10:48:32;98588.12;;;19.06;39.61
57847;BME280;43675;50.030;21.952;2022-10-22T10:51:06;98588.12;;;19.06;39.61
57847;BME280;43675;50.030;21.952;2022-10-22T10:53:42;98570.70;;;19.10;39.70
57847;BME280;43675;50.030;21.952;2022-10-22T10:58:50;98591.41;;;19.28;39.62
57847;BME280;43675;50.030;21.952;2022-10-22T11:04:05;98591.13;;;19.53;39.30
57847;BME280;43675;50.030;21.952;2022-10-22T11:06:30;98591.13;;;19.53;39.30
57847;BME280;43675;50.030;21.952;2022-10-22T11:09:04;98565.00;;;19.59;39.27
57847;BME280;43675;50.030;21.952;2022-10-22T11:11:35;98565.00;;;19.59;39.27
57847;BME280;43675;50.030;21.952;2022-10-22T11:16:54;98557.66;;;19.50;38.68
57847;BME280;43675;50.030;21.952;2022-10-22T11:19:32;98563.38;;;19.51;38.65
57847;BME280;43675;50.030;21.952;2022-10-22T11:22:02;98553.29;;;19.38;39.01
57847;BME280;43675;50.030;21.952;2022-10-22T11:27:51;98558.73;;;19.26;39.15
57847;BME280;43675;50.030;21.952;2022-10-22T11:30:27;98567.45;;;19.15;39.49
57847;BME280;43675;50.030;21.952;2022-10-22T11:32:56;98566.64;;;19.12;39.59
57847;BME280;43675;50.030;21.952;2022-10-22T11:35:36;98575.34;;;19.14;39.71
57847;BME280;43675;50.030;21.952;2022-10-22T11:37:55;98566.36;;;19.19;39.65
57847;BME280;43675;50.030;21.952;2022-10-22T11:40:34;98557.94;;;19.20;39.55
57847;BME280;43675;50.030;21.952;2022-10-22T11:43:04;98564.99;;;19.21;39.58
57847;BME280;43675;50.030;21.952;2022-10-22T11:45:39;98571.26;;;19.14;39.69
57847;BME280;43675;50.030;21.952;2022-10-22T11:55:49;98565.23;;;18.74;40.28
57847;BME280;43675;50.030;21.952;2022-10-22T12:11:27;98580.19;;;17.97;41.25
57847;BME280;43675;50.030;21.952;2022-10-22T12:16:26;98576.04;;;17.79;41.56
57847;BME280;43675;50.030;21.952;2022-10-22T12:19:04;98576.53;;;17.71;41.71
57847;BME280;43675;50.030;21.952;2022-10-22T12:21:31;98583.28;;;17.64;41.99
57847;BME280;43675;50.030;21.952;2022-10-22T12:23:58;98576.37;;;17.54;42.07
57847;BME280;43675;50.030;21.952;2022-10-22T12:26:26;98568.73;;;17.45;42.21
57847;BME280;43675;50.030;21.952;2022-10-22T12:28:58;98566.78;;;17.38;42.45
57847;BME280;43675;50.030;21.952;2022-10-22T12:31:36;98575.41;;;17.30;42.62
57847;BME280;43675;50.030;21.952;2022-10-22T12:34:02;98577.23;;;17.22;42.84
57847;BME280;43675;50.030;21.952;2022-10-22T12:36:29;98579.88;;;17.12;43.06
57847;BME280;43675;50.030;21.952;2022-10-22T12:39:01;98583.90;;;17.07;43.31
57847;BME280;43675;50.030;21.952;2022-10-22T12:41:33;98575.99;;;17.00;43.42
57847;BME280;43675;50.030;21.952;2022-10-22T12:44:00;98584.31;;;16.94;43.61
57847;BME280;43675;50.030;21.952;2022-10-22T12:46:27;98572.62;;;16.88;43.93
57847;BME280;43675;50.030;21.952;2022-10-22T12:49:00;98573.16;;;16.85;44.31
57847;BME280;43675;50.030;21.952;2022-10-22T12:51:27;98572.27;;;16.80;44.51
57847;BME280;43675;50.030;21.952;2022-10-22T12:53:55;98570.56;;;16.71;44.91
57847;BME280;43675;50.030;21.952;2022-10-22T12:56:32;98569.66;;;16.63;45.32
57847;BME280;43675;50.030;21.952;2022-10-22T13:01:33;98578.11;;;16.42;46.30
57847;BME280;43675;50.030;21.952;2022-10-22T13:04:12;98587.45;;;16.32;46.64
57847;BME280;43675;50.030;21.952;2022-10-22T13:06:34;98586.02;;;16.25;46.91
57847;BME280;43675;50.030;21.952;2022-10-22T13:09:12;98585.92;;;16.17;47.40
57847;BME280;43675;50.030;21.952;2022-10-22T13:11:41;98576.89;;;16.09;47.83
57847;BME280;43675;50.030;21.952;2022-10-22T13:14:20;98584.92;;;16.01;48.21
57847;BME280;43675;50.030;21.952;2022-10-22T13:17:36;98587.23;;;15.93;48.66
57847;BME280;43675;50.030;21.952;2022-10-22T13:19:59;98579.53;;;15.82;49.15
57847;BME280;43675;50.030;21.952;2022-10-22T13:22:34;98591.50;;;15.67;49.56
57847;BME280;43675;50.030;21.952;2022-10-22T13:27:43;98582.23;;;15.46;50.30
57847;BME280;43675;50.030;21.952;2022-10-22T13:30:16;98582.33;;;15.35;50.59
57847;BME280;43675;50.030;21.952;2022-10-22T13:32:57;98585.45;;;15.27;50.94
57847;BME280;43675;50.030;21.952;2022-10-22T13:35:26;98589.61;;;15.18;51.24
57847;BME280;43675;50.030;21.952;2022-10-22T13:37:52;98585.91;;;15.04;51.60
57847;BME280;43675;50.030;21.952;2022-10-22T13:40:18;98586.61;;;14.97;51.89
57847;BME280;43675;50.030;21.952;2022-10-22T13:42:44;98584.86;;;14.91;52.38
57847;BME280;43675;50.030;21.952;2022-10-22T13:45:11;98585.56;;;14.84;52.91
57847;BME280;43675;50.030;21.952;2022-10-22T13:47:37;98580.55;;;14.76;53.18
57847;BME280;43675;50.030;21.952;2022-10-22T13:50:12;98586.94;;;14.70;53.65
57847;BME280;43675;50.030;21.952;2022-10-22T13:52:48;98582.79;;;14.65;54.02
57847;BME280;43675;50.030;21.952;2022-10-22T13:55:20;98580.44;;;14.54;54.42
57847;BME280;43675;50.030;21.952;2022-10-22T13:57:46;98577.87;;;14.48;54.71
57847;BME280;43675;50.030;21.952;2022-10-22T14:00:15;98578.55;;;14.41;54.96
57847;BME280;43675;50.030;21.952;2022-10-22T14:02:41;98583.32;;;14.36;55.27
57847;BME280;43675;50.030;21.952;2022-10-22T14:05:08;98582.39;;;14.31;55.63
57847;BME280;43675;50.030;21.952;2022-10-22T14:07:37;98575.20;;;14.22;55.88
57847;BME280;43675;50.030;21.952;2022-10-22T14:10:17;98577.74;;;14.14;56.21
57847;BME280;43675;50.030;21.952;2022-10-22T14:12:43;98573.25;;;14.06;56.59
57847;BME280;43675;50.030;21.952;2022-10-22T14:15:12;98573.84;;;13.96;56.95
57847;BME280;43675;50.030;21.952;2022-10-22T14:17:39;98569.94;;;13.90;57.30
57847;BME280;43675;50.030;21.952;2022-10-22T14:20:05;98566.04;;;13.83;57.58
57847;BME280;43675;50.030;21.952;2022-10-22T14:22:32;98576.41;;;13.77;57.87
57847;BME280;43675;50.030;21.952;2022-10-22T14:24:57;98575.20;;;13.70;58.16
57847;BME280;43675;50.030;21.952;2022-10-22T14:27:23;98579.66;;;13.65;58.49
57847;BME280;43675;50.030;21.952;2022-10-22T14:29:48;98576.86;;;13.60;58.69
57847;BME280;43675;50.030;21.952;2022-10-22T14:32:17;98577.27;;;13.54;58.90
57847;BME280;43675;50.030;21.952;2022-10-22T14:34:50;98576.05;;;13.48;59.13
57847;BME280;43675;50.030;21.952;2022-10-22T14:37:18;98574.01;;;13.41;59.44